sensor_id;sensor_type;location;lat;lon;timestamp;temperature;humidity
44537;DHT22;30245;51.966;6.292;2023-06-04T00:01:11;21.30;35.30
44537;DHT22;30245;51.966;6.292;2023-06-04T00:03:36;21.20;35.40
44537;DHT22;30245;51.966;6.292;2023-06-04T00:06:02;21.10;35.50
44537;DHT22;30245;51.966;6.292;2023-06-04T00:08:31;21.10;35.60
44537;DHT22;30245;51.966;6.292;2023-06-04T00:10:56;21.10;35.60
44537;DHT22;30245;51.966;6.292;2023-06-04T00:13:22;21.10;35.70
44537;DHT22;30245;51.966;6.292;2023-06-04T00:15:47;21.00;35.70
44537;DHT22;30245;51.966;6.292;2023-06-04T00:18:13;21.00;35.80
44537;DHT22;30245;51.966;6.292;2023-06-04T00:20:39;20.90;36.00
44537;DHT22;30245;51.966;6.292;2023-06-04T00:23:04;20.90;36.10
44537;DHT22;30245;51.966;6.292;2023-06-04T00:25:31;20.90;36.20
44537;DHT22;30245;51.966;6.292;2023-06-04T00:27:56;20.90;36.40
44537;DHT22;30245;51.966;6.292;2023-06-04T00:30:22;20.80;36.50
44537;DHT22;30245;51.966;6.292;2023-06-04T00:32:47;20.80;36.50
44537;DHT22;30245;51.966;6.292;2023-06-04T00:35:13;20.80;36.60
44537;DHT22;30245;51.966;6.292;2023-06-04T00:37:39;20.70;36.70
44537;DHT22;30245;51.966;6.292;2023-06-04T00:40:05;20.80;36.80
44537;DHT22;30245;51.966;6.292;2023-06-04T00:42:31;20.70;36.80
44537;DHT22;30245;51.966;6.292;2023-06-04T00:44:57;20.70;36.90
44537;DHT22;30245;51.966;6.292;2023-06-04T00:47:23;20.60;37.00
44537;DHT22;30245;51.966;6.292;2023-06-04T00:49:49;20.50;37.00
44537;DHT22;30245;51.966;6.292;2023-06-04T00:52:15;20.50;37.20
44537;DHT22;30245;51.966;6.292;2023-06-04T00:54:41;20.50;37.30
44537;DHT22;30245;51.966;6.292;2023-06-04T00:57:07;20.50;37.30
44537;DHT22;30245;51.966;6.292;2023-06-04T00:59:36;20.50;37.40
44537;DHT22;30245;51.966;6.292;2023-06-04T01:02:09;20.40;37.40
44537;DHT22;30245;51.966;6.292;2023-06-04T01:07:07;20.40;37.50
44537;DHT22;30245;51.966;6.292;2023-06-04T01:09:34;20.30;37.40
44537;DHT22;30245;51.966;6.292;2023-06-04T01:12:04;20.30;37.50
44537;DHT22;30245;51.966;6.292;2023-06-04T01:14:29;20.30;37.50
44537;DHT22;30245;51.966;6.292;2023-06-04T01:17:06;20.30;37.60
44537;DHT22;30245;51.966;6.292;2023-06-04T01:22:42;20.20;37.60
44537;DHT22;30245;51.966;6.292;2023-06-04T01:25:21;20.10;37.60
44537;DHT22;30245;51.966;6.292;2023-06-04T01:27:50;20.10;37.70
44537;DHT22;30245;51.966;6.292;2023-06-04T01:30:34;20.00;37.80
44537;DHT22;30245;51.966;6.292;2023-06-04T01:33:00;20.00;37.90
44537;DHT22;30245;51.966;6.292;2023-06-04T01:35:27;20.00;37.80
44537;DHT22;30245;51.966;6.292;2023-06-04T01:37:53;20.00;37.90
44537;DHT22;30245;51.966;6.292;2023-06-04T01:40:20;20.00;37.90
44537;DHT22;30245;51.966;6.292;2023-06-04T01:42:46;19.90;37.90
44537;DHT22;30245;51.966;6.292;2023-06-04T01:45:11;19.90;38.00
44537;DHT22;30245;51.966;6.292;2023-06-04T01:47:37;19.90;38.10
44537;DHT22;30245;51.966;6.292;2023-06-04T01:50:05;19.90;38.10
44537;DHT22;30245;51.966;6.292;2023-06-04T01:52:37;19.90;38.20
44537;DHT22;30245;51.966;6.292;2023-06-04T01:55:06;19.80;38.20
44537;DHT22;30245;51.966;6.292;2023-06-04T01:57:36;19.80;38.00
44537;DHT22;30245;51.966;6.292;2023-06-04T02:00:03;19.80;37.90
44537;DHT22;30245;51.966;6.292;2023-06-04T02:02:30;19.70;38.00
44537;DHT22;30245;51.966;6.292;2023-06-04T02:04:56;19.70;38.00
44537;DHT22;30245;51.966;6.292;2023-06-04T02:07:21;19.70;38.10
44537;DHT22;30245;51.966;6.292;2023-06-04T02:09:48;19.60;38.20
44537;DHT22;30245;51.966;6.292;2023-06-04T02:12:14;19.60;38.20
44537;DHT22;30245;51.966;6.292;2023-06-04T02:14:39;19.60;38.30
44537;DHT22;30245;51.966;6.292;2023-06-04T02:17:07;19.50;38.40
44537;DHT22;30245;51.966;6.292;2023-06-04T02:19:44;19.50;38.40
44537;DHT22;30245;51.966;6.292;2023-06-04T02:22:11;19.50;38.40
44537;DHT22;30245;51.966;6.292;2023-06-04T02:24:37;19.40;38.40
44537;DHT22;30245;51.966;6.292;2023-06-04T02:27:04;19.40;38.50
44537;DHT22;30245;51.966;6.292;2023-06-04T02:29:30;19.40;38.50
44537;DHT22;30245;51.966;6.292;2023-06-04T02:31:56;19.40;38.50
44537;DHT22;30245;51.966;6.292;2023-06-04T02:34:22;19.40;38.60
44537;DHT22;30245;51.966;6.292;2023-06-04T02:36:48;19.30;38.70
44537;DHT22;30245;51.966;6.292;2023-06-04T02:39:16;19.30;38.70
44537;DHT22;30245;51.966;6.292;2023-06-04T02:41:42;19.20;38.80
44537;DHT22;30245;51.966;6.292;2023-06-04T02:44:07;19.10;38.80
44537;DHT22;30245;51.966;6.292;2023-06-04T02:46:33;19.20;39.00
44537;DHT22;30245;51.966;6.292;2023-06-04T02:48:58;19.10;38.90
44537;DHT22;30245;51.966;6.292;2023-06-04T02:51:24;19.20;39.00
44537;DHT22;30245;51.966;6.292;2023-06-04T02:53:50;19.20;38.90
44537;DHT22;30245;51.966;6.292;2023-06-04T02:56:16;19.20;38.90
44537;DHT22;30245;51.966;6.292;2023-06-04T02:58:51;19.20;38.90
44537;DHT22;30245;51.966;6.292;2023-06-04T03:01:22;19.10;39.10
44537;DHT22;30245;51.966;6.292;2023-06-04T03:03:48;19.00;39.00
44537;DHT22;30245;51.966;6.292;2023-06-04T03:06:15;19.00;39.10
44537;DHT22;30245;51.966;6.292;2023-06-04T03:08:41;19.00;39.10
44537;DHT22;30245;51.966;6.292;2023-06-04T03:11:07;19.00;39.20
44537;DHT22;30245;51.966;6.292;2023-06-04T03:13:33;18.90;39.20
44537;DHT22;30245;51.966;6.292;2023-06-04T03:16:02;18.80;39.30
44537;DHT22;30245;51.966;6.292;2023-06-04T03:18:28;18.80;39.50
44537;DHT22;30245;51.966;6.292;2023-06-04T03:20:54;18.80;39.40
44537;DHT22;30245;51.966;6.292;2023-06-04T03:23:20;18.80;39.50
44537;DHT22;30245;51.966;6.292;2023-06-04T03:25:46;18.80;39.50
44537;DHT22;30245;51.966;6.292;2023-06-04T03:28:12;18.80;39.50
44537;DHT22;30245;51.966;6.292;2023-06-04T03:30:41;18.80;39.50
44537;DHT22;30245;51.966;6.292;2023-06-04T03:33:08;18.80;39.60
44537;DHT22;30245;51.966;6.292;2023-06-04T03:35:33;18.80;39.60
44537;DHT22;30245;51.966;6.292;2023-06-04T03:37:59;18.80;39.60
44537;DHT22;30245;51.966;6.292;2023-06-04T03:40:25;18.80;39.60
44537;DHT22;30245;51.966;6.292;2023-06-04T03:42:51;18.80;39.70
44537;DHT22;30245;51.966;6.292;2023-06-04T03:45:16;18.80;39.70
44537;DHT22;30245;51.966;6.292;2023-06-04T03:47:42;18.80;39.80
44537;DHT22;30245;51.966;6.292;2023-06-04T03:50:08;18.70;39.80
44537;DHT22;30245;51.966;6.292;2023-06-04T03:52:33;18.70;39.90
44537;DHT22;30245;51.966;6.292;2023-06-04T03:54:59;18.70;40.00
44537;DHT22;30245;51.966;6.292;2023-06-04T03:57:25;18.70;40.00
44537;DHT22;30245;51.966;6.292;2023-06-04T03:59:51;18.70;40.00
44537;DHT22;30245;51.966;6.292;2023-06-04T04:02:16;18.70;40.10
44537;DHT22;30245;51.966;6.292;2023-06-04T04:04:43;18.60;40.10
44537;DHT22;30245;51.966;6.292;2023-06-04T04:07:09;18.60;40.20
44537;DHT22;30245;51.966;6.292;2023-06-04T04:09:36;18.60;40.40
44537;DHT22;30245;51.966;6.292;2023-06-04T04:12:02;18.60;40.50
44537;DHT22;30245;51.966;6.292;2023-06-04T04:14:27;18.60;40.60
44537;DHT22;30245;51.966;6.292;2023-06-04T04:16:56;18.60;40.60
44537;DHT22;30245;51.966;6.292;2023-06-04T04:19:21;18.60;40.70
44537;DHT22;30245;51.966;6.292;2023-06-04T04:21:47;18.50;40.70
44537;DHT22;30245;51.966;6.292;2023-06-04T04:24:34;18.60;40.80
44537;DHT22;30245;51.966;6.292;2023-06-04T04:27:01;18.60;40.90
44537;DHT22;30245;51.966;6.292;2023-06-04T04:29:29;18.60;40.80
44537;DHT22;30245;51.966;6.292;2023-06-04T04:31:58;18.60;40.90
44537;DHT22;30245;51.966;6.292;2023-06-04T04:34:26;18.60;40.90
44537;DHT22;30245;51.966;6.292;2023-06-04T04:36:52;18.60;41.00
44537;DHT22;30245;51.966;6.292;2023-06-04T04:39:27;18.60;41.10
44537;DHT22;30245;51.966;6.292;2023-06-04T04:41:54;18.50;41.40
44537;DHT22;30245;51.966;6.292;2023-06-04T04:44:20;18.50;41.50
44537;DHT22;30245;51.966;6.292;2023-06-04T04:46:47;18.50;41.60
44537;DHT22;30245;51.966;6.292;2023-06-04T04:49:13;18.50;41.60
44537;DHT22;30245;51.966;6.292;2023-06-04T04:51:38;18.50;41.60
44537;DHT22;30245;51.966;6.292;2023-06-04T04:54:04;18.50;41.70
44537;DHT22;30245;51.966;6.292;2023-06-04T04:56:33;18.50;41.80
44537;DHT22;30245;51.966;6.292;2023-06-04T04:58:59;18.50;42.00
44537;DHT22;30245;51.966;6.292;2023-06-04T05:01:25;18.50;42.00
44537;DHT22;30245;51.966;6.292;2023-06-04T05:03:51;18.50;42.00
44537;DHT22;30245;51.966;6.292;2023-06-04T05:06:17;18.60;42.20
44537;DHT22;30245;51.966;6.292;2023-06-04T05:08:42;18.60;42.20
44537;DHT22;30245;51.966;6.292;2023-06-04T05:11:08;18.60;42.30
44537;DHT22;30245;51.966;6.292;2023-06-04T05:13:34;18.70;42.40
44537;DHT22;30245;51.966;6.292;2023-06-04T05:16:00;18.70;42.40
44537;DHT22;30245;51.966;6.292;2023-06-04T05:18:36;18.70;42.60
44537;DHT22;30245;51.966;6.292;2023-06-04T05:21:05;18.70;42.60
44537;DHT22;30245;51.966;6.292;2023-06-04T05:23:32;18.70;42.70
44537;DHT22;30245;51.966;6.292;2023-06-04T05:26:02;18.70;42.70
44537;DHT22;30245;51.966;6.292;2023-06-04T05:28:29;18.70;42.80
44537;DHT22;30245;51.966;6.292;2023-06-04T05:30:55;18.70;42.90
44537;DHT22;30245;51.966;6.292;2023-06-04T05:33:25;18.80;43.00
44537;DHT22;30245;51.966;6.292;2023-06-04T05:35:51;18.80;43.00
44537;DHT22;30245;51.966;6.292;2023-06-04T05:38:23;18.80;43.10
44537;DHT22;30245;51.966;6.292;2023-06-04T05:40:51;18.90;43.20
44537;DHT22;30245;51.966;6.292;2023-06-04T05:43:17;19.00;43.10
44537;DHT22;30245;51.966;6.292;2023-06-04T05:45:43;19.00;43.10
44537;DHT22;30245;51.966;6.292;2023-06-04T05:48:09;19.00;43.10
44537;DHT22;30245;51.966;6.292;2023-06-04T05:50:34;19.00;43.20
44537;DHT22;30245;51.966;6.292;2023-06-04T05:53:00;19.10;43.20
44537;DHT22;30245;51.966;6.292;2023-06-04T05:55:27;19.20;43.20
44537;DHT22;30245;51.966;6.292;2023-06-04T05:57:54;19.30;43.10
44537;DHT22;30245;51.966;6.292;2023-06-04T06:00:19;19.30;43.00
44537;DHT22;30245;51.966;6.292;2023-06-04T06:02:45;19.40;43.00
44537;DHT22;30245;51.966;6.292;2023-06-04T06:05:14;19.50;43.00
44537;DHT22;30245;51.966;6.292;2023-06-04T06:07:40;19.60;43.00
44537;DHT22;30245;51.966;6.292;2023-06-04T06:10:06;19.60;42.80
44537;DHT22;30245;51.966;6.292;2023-06-04T06:12:32;19.70;42.90
44537;DHT22;30245;51.966;6.292;2023-06-04T06:14:58;19.70;42.90
44537;DHT22;30245;51.966;6.292;2023-06-04T06:17:23;19.70;43.00
44537;DHT22;30245;51.966;6.292;2023-06-04T06:19:49;19.70;42.90
44537;DHT22;30245;51.966;6.292;2023-06-04T06:22:15;19.70;43.00
44537;DHT22;30245;51.966;6.292;2023-06-04T06:24:40;19.80;42.90
44537;DHT22;30245;51.966;6.292;2023-06-04T06:27:06;19.90;42.80
44537;DHT22;30245;51.966;6.292;2023-06-04T06:29:32;20.00;42.70
44537;DHT22;30245;51.966;6.292;2023-06-04T06:31:58;20.10;42.80
44537;DHT22;30245;51.966;6.292;2023-06-04T06:34:24;20.20;43.40
44537;DHT22;30245;51.966;6.292;2023-06-04T06:36:50;20.30;42.60
44537;DHT22;30245;51.966;6.292;2023-06-04T06:39:16;20.30;42.50
44537;DHT22;30245;51.966;6.292;2023-06-04T06:41:41;20.40;42.40
44537;DHT22;30245;51.966;6.292;2023-06-04T06:44:07;20.50;42.30
44537;DHT22;30245;51.966;6.292;2023-06-04T06:46:33;20.50;42.30
44537;DHT22;30245;51.966;6.292;2023-06-04T06:48:58;20.60;42.20
44537;DHT22;30245;51.966;6.292;2023-06-04T06:51:24;20.70;42.10
44537;DHT22;30245;51.966;6.292;2023-06-04T06:53:50;20.80;42.00
44537;DHT22;30245;51.966;6.292;2023-06-04T06:56:18;20.90;41.80
44537;DHT22;30245;51.966;6.292;2023-06-04T06:58:44;20.90;41.70
44537;DHT22;30245;51.966;6.292;2023-06-04T07:01:11;21.00;41.60
44537;DHT22;30245;51.966;6.292;2023-06-04T07:03:36;21.00;41.50
44537;DHT22;30245;51.966;6.292;2023-06-04T07:06:03;21.10;41.30
44537;DHT22;30245;51.966;6.292;2023-06-04T07:08:29;21.20;41.20
44537;DHT22;30245;51.966;6.292;2023-06-04T07:10:54;21.20;41.00
44537;DHT22;30245;51.966;6.292;2023-06-04T07:13:20;21.30;41.00
44537;DHT22;30245;51.966;6.292;2023-06-04T07:15:46;21.40;40.90
44537;DHT22;30245;51.966;6.292;2023-06-04T07:18:15;21.40;40.70
44537;DHT22;30245;51.966;6.292;2023-06-04T07:20:40;21.60;40.70
44537;DHT22;30245;51.966;6.292;2023-06-04T07:23:06;21.70;40.60
44537;DHT22;30245;51.966;6.292;2023-06-04T07:25:32;21.80;40.60
44537;DHT22;30245;51.966;6.292;2023-06-04T07:27:58;21.80;40.50
44537;DHT22;30245;51.966;6.292;2023-06-04T07:30:27;21.90;40.40
44537;DHT22;30245;51.966;6.292;2023-06-04T07:32:52;22.00;40.30
44537;DHT22;30245;51.966;6.292;2023-06-04T07:35:18;22.00;40.90
44537;DHT22;30245;51.966;6.292;2023-06-04T07:37:43;22.00;40.20
44537;DHT22;30245;51.966;6.292;2023-06-04T07:40:14;22.10;40.20
44537;DHT22;30245;51.966;6.292;2023-06-04T07:42:41;22.10;40.20
44537;DHT22;30245;51.966;6.292;2023-06-04T07:45:08;22.20;40.10
44537;DHT22;30245;51.966;6.292;2023-06-04T07:47:35;22.30;40.10
44537;DHT22;30245;51.966;6.292;2023-06-04T07:50:00;22.40;40.10
44537;DHT22;30245;51.966;6.292;2023-06-04T07:52:26;22.50;39.90
44537;DHT22;30245;51.966;6.292;2023-06-04T07:54:52;22.60;39.60
44537;DHT22;30245;51.966;6.292;2023-06-04T07:57:17;22.70;39.50
44537;DHT22;30245;51.966;6.292;2023-06-04T07:59:43;22.70;39.40
44537;DHT22;30245;51.966;6.292;2023-06-04T08:02:08;22.80;39.30
44537;DHT22;30245;51.966;6.292;2023-06-04T08:04:34;22.90;39.20
44537;DHT22;30245;51.966;6.292;2023-06-04T08:07:02;23.00;39.20
44537;DHT22;30245;51.966;6.292;2023-06-04T08:09:28;23.00;39.00
44537;DHT22;30245;51.966;6.292;2023-06-04T08:11:54;23.20;39.00
44537;DHT22;30245;51.966;6.292;2023-06-04T08:14:22;23.20;38.80
44537;DHT22;30245;51.966;6.292;2023-06-04T08:16:48;23.30;38.70
44537;DHT22;30245;51.966;6.292;2023-06-04T08:19:14;23.40;38.60
44537;DHT22;30245;51.966;6.292;2023-06-04T08:21:41;23.50;38.50
44537;DHT22;30245;51.966;6.292;2023-06-04T08:24:08;23.60;38.30
44537;DHT22;30245;51.966;6.292;2023-06-04T08:26:34;23.80;38.10
44537;DHT22;30245;51.966;6.292;2023-06-04T08:29:02;24.00;37.70
44537;DHT22;30245;51.966;6.292;2023-06-04T08:31:28;24.00;37.30
44537;DHT22;30245;51.966;6.292;2023-06-04T08:33:56;24.20;37.00
44537;DHT22;30245;51.966;6.292;2023-06-04T08:36:22;24.20;36.90
44537;DHT22;30245;51.966;6.292;2023-06-04T08:38:47;24.30;36.60
44537;DHT22;30245;51.966;6.292;2023-06-04T08:41:42;24.50;37.20
44537;DHT22;30245;51.966;6.292;2023-06-04T08:44:09;24.50;36.40
44537;DHT22;30245;51.966;6.292;2023-06-04T08:46:38;24.70;36.50
44537;DHT22;30245;51.966;6.292;2023-06-04T08:49:05;24.70;36.10
44537;DHT22;30245;51.966;6.292;2023-06-04T08:51:33;24.80;36.00
44537;DHT22;30245;51.966;6.292;2023-06-04T08:54:00;24.80;35.80
44537;DHT22;30245;51.966;6.292;2023-06-04T08:56:26;24.90;35.70
44537;DHT22;30245;51.966;6.292;2023-06-04T08:58:56;25.00;35.60
44537;DHT22;30245;51.966;6.292;2023-06-04T09:01:24;25.00;36.10
44537;DHT22;30245;51.966;6.292;2023-06-04T09:03:53;25.10;35.30
44537;DHT22;30245;51.966;6.292;2023-06-04T09:06:19;25.10;35.10
44537;DHT22;30245;51.966;6.292;2023-06-04T09:08:45;25.20;35.00
44537;DHT22;30245;51.966;6.292;2023-06-04T09:11:14;25.30;34.40
44537;DHT22;30245;51.966;6.292;2023-06-04T09:13:42;25.30;33.50
44537;DHT22;30245;51.966;6.292;2023-06-04T09:16:08;25.40;33.10
44537;DHT22;30245;51.966;6.292;2023-06-04T09:18:34;25.50;32.30
44537;DHT22;30245;51.966;6.292;2023-06-04T09:21:07;25.50;31.80
44537;DHT22;30245;51.966;6.292;2023-06-04T09:23:43;25.60;31.40
44537;DHT22;30245;51.966;6.292;2023-06-04T09:26:09;25.70;31.30
44537;DHT22;30245;51.966;6.292;2023-06-04T09:28:39;25.90;31.30
44537;DHT22;30245;51.966;6.292;2023-06-04T09:31:10;26.00;30.80
44537;DHT22;30245;51.966;6.292;2023-06-04T09:33:45;26.10;30.50
44537;DHT22;30245;51.966;6.292;2023-06-04T09:36:11;26.30;30.40
44537;DHT22;30245;51.966;6.292;2023-06-04T09:38:37;26.40;30.20
44537;DHT22;30245;51.966;6.292;2023-06-04T09:41:03;26.60;30.00
44537;DHT22;30245;51.966;6.292;2023-06-04T09:43:32;26.70;29.70
44537;DHT22;30245;51.966;6.292;2023-06-04T09:46:12;26.80;29.50
44537;DHT22;30245;51.966;6.292;2023-06-04T09:48:39;26.90;29.10
44537;DHT22;30245;51.966;6.292;2023-06-04T09:51:15;27.00;29.00
44537;DHT22;30245;51.966;6.292;2023-06-04T09:53:56;27.00;28.60
44537;DHT22;30245;51.966;6.292;2023-06-04T09:56:24;27.10;28.60
44537;DHT22;30245;51.966;6.292;2023-06-04T09:58:54;27.20;28.20
44537;DHT22;30245;51.966;6.292;2023-06-04T10:01:20;27.20;28.10
44537;DHT22;30245;51.966;6.292;2023-06-04T10:03:51;27.40;28.10
44537;DHT22;30245;51.966;6.292;2023-06-04T10:06:19;27.50;28.10
44537;DHT22;30245;51.966;6.292;2023-06-04T10:08:52;27.60;28.00
44537;DHT22;30245;51.966;6.292;2023-06-04T10:11:25;27.80;28.20
44537;DHT22;30245;51.966;6.292;2023-06-04T10:14:00;27.90;28.10
44537;DHT22;30245;51.966;6.292;2023-06-04T10:16:27;28.00;27.90
44537;DHT22;30245;51.966;6.292;2023-06-04T10:18:54;28.20;28.00
44537;DHT22;30245;51.966;6.292;2023-06-04T10:21:21;28.30;27.80
44537;DHT22;30245;51.966;6.292;2023-06-04T10:23:48;28.40;27.70
44537;DHT22;30245;51.966;6.292;2023-06-04T10:26:14;28.40;27.60
44537;DHT22;30245;51.966;6.292;2023-06-04T10:28:43;28.50;27.60
44537;DHT22;30245;51.966;6.292;2023-06-04T10:31:10;28.60;27.60
44537;DHT22;30245;51.966;6.292;2023-06-04T10:33:36;28.80;27.90
44537;DHT22;30245;51.966;6.292;2023-06-04T10:36:16;29.00;27.60
44537;DHT22;30245;51.966;6.292;2023-06-04T10:38:51;29.10;27.50
44537;DHT22;30245;51.966;6.292;2023-06-04T10:41:17;29.30;27.30
44537;DHT22;30245;51.966;6.292;2023-06-04T10:43:45;29.30;27.00
44537;DHT22;30245;51.966;6.292;2023-06-04T10:46:13;29.40;26.80
44537;DHT22;30245;51.966;6.292;2023-06-04T10:48:52;29.60;26.80
44537;DHT22;30245;51.966;6.292;2023-06-04T10:51:32;29.70;26.70
44537;DHT22;30245;51.966;6.292;2023-06-04T10:53:58;29.80;26.60
44537;DHT22;30245;51.966;6.292;2023-06-04T10:56:28;29.80;26.50
44537;DHT22;30245;51.966;6.292;2023-06-04T10:58:54;29.80;26.40
44537;DHT22;30245;51.966;6.292;2023-06-04T11:01:29;29.80;26.40
44537;DHT22;30245;51.966;6.292;2023-06-04T11:03:57;29.80;26.30
44537;DHT22;30245;51.966;6.292;2023-06-04T11:06:23;29.90;26.30
44537;DHT22;30245;51.966;6.292;2023-06-04T11:09:05;29.90;26.10
44537;DHT22;30245;51.966;6.292;2023-06-04T11:11:31;29.90;25.90
44537;DHT22;30245;51.966;6.292;2023-06-04T11:14:07;30.10;26.10
44537;DHT22;30245;51.966;6.292;2023-06-04T11:16:33;30.10;25.40
44537;DHT22;30245;51.966;6.292;2023-06-04T11:18:59;30.20;25.40
44537;DHT22;30245;51.966;6.292;2023-06-04T11:21:25;30.40;25.60
44537;DHT22;30245;51.966;6.292;2023-06-04T11:24:00;30.50;25.70
44537;DHT22;30245;51.966;6.292;2023-06-04T11:26:33;30.60;25.50
44537;DHT22;30245;51.966;6.292;2023-06-04T11:28:59;30.70;25.30
44537;DHT22;30245;51.966;6.292;2023-06-04T11:31:24;30.80;25.20
44537;DHT22;30245;51.966;6.292;2023-06-04T11:33:50;30.80;25.00
44537;DHT22;30245;51.966;6.292;2023-06-04T11:36:27;30.80;25.10
44537;DHT22;30245;51.966;6.292;2023-06-04T11:39:03;30.80;24.90
44537;DHT22;30245;51.966;6.292;2023-06-04T11:41:32;30.80;24.90
44537;DHT22;30245;51.966;6.292;2023-06-04T11:44:05;30.80;24.80
44537;DHT22;30245;51.966;6.292;2023-06-04T11:46:34;30.80;24.80
44537;DHT22;30245;51.966;6.292;2023-06-04T11:49:00;31.00;24.90
44537;DHT22;30245;51.966;6.292;2023-06-04T11:51:27;31.20;24.90
44537;DHT22;30245;51.966;6.292;2023-06-04T11:53:55;31.50;24.90
44537;DHT22;30245;51.966;6.292;2023-06-04T11:56:22;31.60;24.50
44537;DHT22;30245;51.966;6.292;2023-06-04T11:58:49;31.60;25.00
44537;DHT22;30245;51.966;6.292;2023-06-04T12:01:15;31.80;24.70
44537;DHT22;30245;51.966;6.292;2023-06-04T12:03:42;31.90;24.50
44537;DHT22;30245;51.966;6.292;2023-06-04T12:08:46;32.10;24.50
44537;DHT22;30245;51.966;6.292;2023-06-04T12:11:31;32.20;24.40
44537;DHT22;30245;51.966;6.292;2023-06-04T12:14:04;32.30;24.50
44537;DHT22;30245;51.966;6.292;2023-06-04T12:16:30;32.40;24.40
44537;DHT22;30245;51.966;6.292;2023-06-04T12:19:10;32.30;24.20
44537;DHT22;30245;51.966;6.292;2023-06-04T12:21:38;32.40;24.40
44537;DHT22;30245;51.966;6.292;2023-06-04T12:24:11;32.40;24.30
44537;DHT22;30245;51.966;6.292;2023-06-04T12:26:39;32.40;24.70
44537;DHT22;30245;51.966;6.292;2023-06-04T12:29:14;32.30;24.10
44537;DHT22;30245;51.966;6.292;2023-06-04T12:31:41;32.30;24.20
44537;DHT22;30245;51.966;6.292;2023-06-04T12:34:07;32.40;24.20
44537;DHT22;30245;51.966;6.292;2023-06-04T12:36:33;32.50;24.40
44537;DHT22;30245;51.966;6.292;2023-06-04T12:39:03;32.50;24.10
44537;DHT22;30245;51.966;6.292;2023-06-04T12:41:30;32.60;24.20
44537;DHT22;30245;51.966;6.292;2023-06-04T12:43:56;32.50;24.10
44537;DHT22;30245;51.966;6.292;2023-06-04T12:46:22;32.40;24.00
44537;DHT22;30245;51.966;6.292;2023-06-04T12:48:52;32.30;24.10
44537;DHT22;30245;51.966;6.292;2023-06-04T12:51:18;32.30;24.20
44537;DHT22;30245;51.966;6.292;2023-06-04T12:53:47;32.50;24.20
44537;DHT22;30245;51.966;6.292;2023-06-04T12:56:13;32.70;24.20
44537;DHT22;30245;51.966;6.292;2023-06-04T12:58:39;32.80;24.20
44537;DHT22;30245;51.966;6.292;2023-06-04T13:01:05;33.00;24.20
44537;DHT22;30245;51.966;6.292;2023-06-04T13:03:31;33.00;24.10
44537;DHT22;30245;51.966;6.292;2023-06-04T13:05:57;33.20;24.00
44537;DHT22;30245;51.966;6.292;2023-06-04T13:08:23;33.10;23.90
44537;DHT22;30245;51.966;6.292;2023-06-04T13:10:50;33.20;24.00
44537;DHT22;30245;51.966;6.292;2023-06-04T13:13:20;33.40;23.90
44537;DHT22;30245;51.966;6.292;2023-06-04T13:15:46;33.50;24.00
44537;DHT22;30245;51.966;6.292;2023-06-04T13:18:12;33.70;23.90
44537;DHT22;30245;51.966;6.292;2023-06-04T13:20:39;33.90;23.90
44537;DHT22;30245;51.966;6.292;2023-06-04T13:23:06;34.20;23.80
44537;DHT22;30245;51.966;6.292;2023-06-04T13:25:31;34.40;23.70
44537;DHT22;30245;51.966;6.292;2023-06-04T13:28:03;34.40;23.60
44537;DHT22;30245;51.966;6.292;2023-06-04T13:30:29;34.50;23.70
44537;DHT22;30245;51.966;6.292;2023-06-04T13:32:55;34.50;23.60
44537;DHT22;30245;51.966;6.292;2023-06-04T13:35:21;34.80;23.50
44537;DHT22;30245;51.966;6.292;2023-06-04T13:37:47;35.00;23.50
44537;DHT22;30245;51.966;6.292;2023-06-04T13:40:13;35.20;23.40
44537;DHT22;30245;51.966;6.292;2023-06-04T13:42:39;35.40;23.30
44537;DHT22;30245;51.966;6.292;2023-06-04T13:45:05;35.40;23.10
44537;DHT22;30245;51.966;6.292;2023-06-04T13:47:31;35.40;23.10
44537;DHT22;30245;51.966;6.292;2023-06-04T13:49:58;35.50;22.90
44537;DHT22;30245;51.966;6.292;2023-06-04T13:52:23;35.70;22.90
44537;DHT22;30245;51.966;6.292;2023-06-04T13:54:49;35.80;22.80
44537;DHT22;30245;51.966;6.292;2023-06-04T13:57:14;35.80;22.80
44537;DHT22;30245;51.966;6.292;2023-06-04T13:59:41;35.70;22.60
44537;DHT22;30245;51.966;6.292;2023-06-04T14:02:07;35.70;22.70
44537;DHT22;30245;51.966;6.292;2023-06-04T14:04:34;35.80;22.70
44537;DHT22;30245;51.966;6.292;2023-06-04T14:07:00;36.20;22.80
44537;DHT22;30245;51.966;6.292;2023-06-04T14:09:26;36.50;22.40
44537;DHT22;30245;51.966;6.292;2023-06-04T14:11:52;36.40;22.40
44537;DHT22;30245;51.966;6.292;2023-06-04T14:14:18;36.50;22.30
44537;DHT22;30245;51.966;6.292;2023-06-04T14:16:47;36.60;22.30
44537;DHT22;30245;51.966;6.292;2023-06-04T14:19:13;36.80;22.30
44537;DHT22;30245;51.966;6.292;2023-06-04T14:21:40;37.20;22.30
44537;DHT22;30245;51.966;6.292;2023-06-04T14:24:06;37.40;22.10
44537;DHT22;30245;51.966;6.292;2023-06-04T14:26:32;37.40;21.90
44537;DHT22;30245;51.966;6.292;2023-06-04T14:28:59;37.30;21.80
44537;DHT22;30245;51.966;6.292;2023-06-04T14:31:25;37.30;21.90
44537;DHT22;30245;51.966;6.292;2023-06-04T14:33:50;37.30;21.80
44537;DHT22;30245;51.966;6.292;2023-06-04T14:36:16;37.40;21.80
44537;DHT22;30245;51.966;6.292;2023-06-04T14:38:41;37.60;21.90
44537;DHT22;30245;51.966;6.292;2023-06-04T14:41:07;37.80;21.80
44537;DHT22;30245;51.966;6.292;2023-06-04T14:43:33;37.90;21.80
44537;DHT22;30245;51.966;6.292;2023-06-04T14:45:58;38.30;21.70
44537;DHT22;30245;51.966;6.292;2023-06-04T14:48:24;38.40;21.50
44537;DHT22;30245;51.966;6.292;2023-06-04T14:50:50;38.30;21.50
44537;DHT22;30245;51.966;6.292;2023-06-04T14:53:19;38.20;21.40
44537;DHT22;30245;51.966;6.292;2023-06-04T14:55:47;38.30;21.40
44537;DHT22;30245;51.966;6.292;2023-06-04T14:58:13;38.40;21.50
44537;DHT22;30245;51.966;6.292;2023-06-04T15:00:39;38.50;21.50
44537;DHT22;30245;51.966;6.292;2023-06-04T15:03:05;38.80;21.50
44537;DHT22;30245;51.966;6.292;2023-06-04T15:05:31;38.90;21.40
44537;DHT22;30245;51.966;6.292;2023-06-04T15:07:57;39.00;21.30
44537;DHT22;30245;51.966;6.292;2023-06-04T15:10:24;39.10;21.20
44537;DHT22;30245;51.966;6.292;2023-06-04T15:12:50;39.20;21.10
44537;DHT22;30245;51.966;6.292;2023-06-04T15:15:16;39.30;20.90
44537;DHT22;30245;51.966;6.292;2023-06-04T15:17:41;39.30;20.80
44537;DHT22;30245;51.966;6.292;2023-06-04T15:20:07;39.40;20.90
44537;DHT22;30245;51.966;6.292;2023-06-04T15:22:33;39.50;20.80
44537;DHT22;30245;51.966;6.292;2023-06-04T15:24:59;39.50;20.70
44537;DHT22;30245;51.966;6.292;2023-06-04T15:27:25;39.30;20.70
44537;DHT22;30245;51.966;6.292;2023-06-04T15:29:51;39.20;20.80
44537;DHT22;30245;51.966;6.292;2023-06-04T15:32:17;39.20;20.90
44537;DHT22;30245;51.966;6.292;2023-06-04T15:34:43;39.30;20.80
44537;DHT22;30245;51.966;6.292;2023-06-04T15:37:09;39.50;20.80
44537;DHT22;30245;51.966;6.292;2023-06-04T15:39:34;39.70;20.80